Accueil
METAR-TAF:

METAR-TAF

Aéroports :

Base aérienne 116 Luxeuil-Saint Sauveur

Luxeuil-les-Bains, France

latitude: 47-47N, longitude: 006-21E, altitude: 278 m

Observation

Le bulletin a été fait il y a 14 minutes, à 20:00 UTC
Vent 6 kt de est/sud-est
Température 3°C
Humidité 75%
Pression 1016 hPa
Visibilité: 7000 m

METAR: LFSX 212000Z AUTO 12006KT 7000 NSC 03/M01 Q1016

Heure: 21:14 (20:14 UTC)

Prévision

Le bulletin a été fait il y a 6 heures et 14 minutes, à 14:00 UTC
Prévision valable du 21 à 15 UTC au 22 à 15 UTC
Vent 3 kt de direction variable
Visibilité: 9000 m
Temporairement
du 21 à 15 UTC au 21 à 21 UTC
Visibilité: 4900 m
pluie faible
Temporairement
du 22 à 00 UTC au 22 à 09 UTC
Visibilité: 3000 m
brume
Probabilité 40% :
Temporairement
du 22 à 02 UTC au 22 à 08 UTC
Visibilité: 0300 m
brouillard givrant

TAF: LFSX 211400Z 2115/2215 VRB03KT 9000 NSC TEMPO 2115/2121 4900 -RA TEMPO 2200/2209 3000 BR PROB40 TEMPO 2202/2208 0300 FZFG

Observations et prévisions météorologiques de plus de 4000 aéroports (messages METAR et TAF).

Les stations disponibles sont représentées par des disques jaunes et rouges sur la carte.

Passer la souris dessus pour voir le nom de la station.

Cliquer dessus pour voir les observations et prévisions météorologiques.

Pour changer de carte: cliquez sur les boutons verts avec une croix noire pour zoomer, sur le bouton vert avec un tiret pour effectuer un zoom arrière, ou sur les flèches vertes pour les cartes adjacentes.


METAR-TAF: